Accueil
METAR-TAF:

METAR-TAF

Aéroports :

Mitchell Municipal Airport

Mitchell, Dakota du Sud, États-Unis

latitude: 43-46N, longitude: 098-02W, altitude: 397 m

Observation

Le bulletin a été fait il y a 59 minutes, à 14:53 UTC
Vent 4 kt de sud-ouest
Température -5°C
Humidité 79%
Pression 1026 hPa
Visibilité: 16.1 km
Ciel clair

METAR: KMHE 141453Z AUTO 22004KT 10SM CLR M05/M08 A3029 RMK AO2 SLP277 T10501078 50003

Heure: 09:52 (15:52 UTC)


TAF: absent

Observations et prévisions météorologiques de plus de 4000 aéroports (messages METAR et TAF).

Les stations disponibles sont représentées par des disques jaunes et rouges sur la carte.

Passer la souris dessus pour voir le nom de la station.

Cliquer dessus pour voir les observations et prévisions météorologiques.

Pour changer de carte: cliquez sur les boutons verts avec une croix noire pour zoomer, sur le bouton vert avec un tiret pour effectuer un zoom arrière, ou sur les flèches vertes pour les cartes adjacentes.


METAR-TAF: